Time;durP1;ratioP1;P1;durP2;ratioP2;P2;SDS_P1;SDS_P2;PMS_P1;PMS_P2;Temp;Humidity;BMP_temperature;BMP_pressure;BME280_temperature;BME280_humidity;BME280_pressure;Samples;Min_cycle;Max_cycle;Signal;HPM_P1;HPM_P2
2021/01/28 00:01:43;;;;;;;126.72;76.60;;;154.10;2048.00;;;;;;4976716;28;20042;-71
2021/01/28 00:04:09;;;;;;;109.78;62.15;;;154.10;1664.00;;;;;;4976676;28;20034;-71
2021/01/28 00:06:34;;;;;;;106.35;63.05;;;154.20;1638.40;;;;;;4976859;28;20019;-71
2021/01/28 00:09:00;;;;;;;93.53;54.53;;;154.10;1664.00;;;;;;4976983;28;20390;-71
2021/01/28 00:11:29;;;;;;;86.00;51.80;;;154.20;1664.00;;;;;;4976584;28;20027;-71
2021/01/28 00:13:55;;;;;;;106.32;57.17;;;154.20;1664.00;;;;;;4958727;28;20022;-71
2021/01/28 00:16:20;;;;;;;102.80;59.55;;;154.30;1638.40;;;;;;4976563;28;20099;-71
2021/01/28 00:18:46;;;;;;;102.97;59.05;;;154.30;1638.40;;;;;;4976496;28;20098;-71
2021/01/28 00:21:12;;;;;;;102.55;59.08;;;154.40;1587.20;;;;;;4976560;28;20029;-70
2021/01/28 00:23:37;;;;;;;94.47;56.67;;;154.40;1587.20;;;;;;4976348;28;20031;-71
2021/01/28 00:26:03;;;;;;;96.35;57.92;;;154.30;1612.80;;;;;;4976242;28;20023;-71
2021/01/28 00:28:29;;;;;;;107.53;70.25;;;154.20;1612.80;;;;;;4976340;28;20035;-71
2021/01/28 00:30:55;;;;;;;92.72;55.85;;;154.30;1612.80;;;;;;4976341;28;20524;-71
2021/01/28 00:33:23;;;;;;;94.15;57.15;;;153.90;1638.40;;;;;;4976227;28;20023;-71
2021/01/28 00:35:51;;;;;;;107.03;62.30;;;153.80;1638.40;;;;;;4976718;28;20110;-71
2021/01/28 00:38:26;;;;;;;119.45;76.78;;;154.00;1638.40;;;;;;4976219;28;20026;-71
2021/01/28 00:40:53;;;;;;;135.65;82.75;;;153.60;1664.00;;;;;;4976088;28;20022;-71
2021/01/28 00:43:19;;;;;;;140.70;86.38;;;153.60;1664.00;;;;;;4976542;28;20517;-71
2021/01/28 00:45:45;;;;;;;126.68;80.95;;;153.90;1689.60;;;;;;4975947;28;20049;-71
2021/01/28 00:48:11;;;;;;;103.78;63.50;;;153.90;1689.60;;;;;;4975925;28;20505;-71
2021/01/28 00:50:39;;;;;;;106.60;63.63;;;153.90;1664.00;;;;;;4976047;28;20026;-71
2021/01/28 00:53:06;;;;;;;94.75;58.80;;;154.00;1689.60;;;;;;4975146;28;20421;-71
2021/01/28 00:55:31;;;;;;;93.30;54.95;;;153.60;1715.20;;;;;;4975987;28;20027;-71
2021/01/28 00:57:57;;;;;;;73.18;47.05;;;;;;;;;;4975730;28;20481;-71
2021/01/28 01:00:28;;;;;;;72.78;47.13;;;128.20;1740.80;;;;;;4975736;28;20449;-71
2021/01/28 01:02:55;;;;;;;74.10;52.63;;;128.00;1868.80;;;;;;4975664;28;20030;-70
2021/01/28 01:05:23;;;;;;;59.95;44.33;;;103.30;1740.80;;;;;;4976067;28;20031;-70
2021/01/28 01:07:49;;;;;;;58.50;39.72;;;128.00;1792.00;;;;;;4975633;28;20381;-70
2021/01/28 01:10:42;;;;;;;59.75;41.65;;;103.10;1792.00;;;;;;4975658;28;20209;-71
2021/01/28 01:13:10;;;;;;;49.65;36.20;;;128.20;1766.40;;;;;;4934995;29;20039;-71
2021/01/28 01:15:36;;;;;;;44.58;32.25;;;103.20;1766.40;;;;;;4934881;29;20494;-70
2021/01/28 01:18:04;;;;;;;52.55;38.13;;;103.20;1766.40;;;;;;4934963;29;20071;-70
2021/01/28 01:20:36;;;;;;;47.22;35.97;;;128.00;1792.00;;;;;;4935035;29;20063;-70
2021/01/28 01:23:03;;;;;;;43.15;31.67;;;103.30;1766.40;;;;;;4934568;28;20100;-70
2021/01/28 01:25:28;;;;;;;49.72;32.38;;;103.20;1792.00;;;;;;4934764;29;20507;-71
2021/01/28 01:27:54;;;;;;;64.70;42.83;;;;;;;;;;4934990;29;20044;-71
2021/01/28 01:30:21;;;;;;;75.43;50.22;;;;;;;;;;4934535;29;20071;-71
2021/01/28 01:32:48;;;;;;;70.40;48.22;;;128.30;1715.20;;;;;;4934674;29;20032;-70
2021/01/28 01:35:15;;;;;;;63.03;41.78;;;128.10;1740.80;;;;;;4934874;29;20513;-70
2021/01/28 01:37:41;;;;;;;50.95;33.40;;;128.50;1715.20;;;;;;4934665;29;20044;-71
2021/01/28 01:40:09;;;;;;;80.57;50.00;;;128.50;1715.20;;;;;;4934520;29;20024;-71
2021/01/28 01:42:35;;;;;;;56.17;37.03;;;;;;;;;;4934457;28;20032;-71
2021/01/28 01:45:06;;;;;;;51.75;32.35;;;153.80;1638.40;;;;;;4934478;29;20601;-70
2021/01/28 01:47:43;;;;;;;71.47;45.00;;;128.80;1664.00;;;;;;4934426;29;20042;-71
2021/01/28 01:50:16;;;;;;;61.15;38.83;;;128.80;1715.20;;;;;;4956513;28;20493;-71
2021/01/28 01:52:42;;;;;;;63.45;40.53;;;153.60;1689.60;;;;;;4974873;28;20023;-71
2021/01/28 01:55:09;;;;;;;71.10;43.28;;;153.70;1664.00;;;;;;4974789;28;20029;-70
2021/01/28 01:57:37;;;;;;;68.88;40.55;;;153.90;1638.40;;;;;;4974623;28;20117;-71
2021/01/28 02:00:14;;;;;;;65.55;43.25;;;153.90;1664.00;;;;;;4974813;28;20026;-71
2021/01/28 02:02:43;;;;;;;57.45;37.15;;;128.60;1689.60;;;;;;4974407;28;20022;-71
2021/01/28 02:05:22;;;;;;;57.58;36.67;;;128.80;1689.60;;;;;;4974760;28;20031;-70
2021/01/28 02:07:48;;;;;;;62.33;38.13;;;153.60;1664.00;;;;;;4974828;28;20015;-71
2021/01/28 02:10:16;;;;;;;58.33;34.25;;;128.90;1689.60;;;;;;4974752;28;20058;-70
2021/01/28 02:12:42;;;;;;;77.10;45.13;;;;;;;;;;4974905;28;20481;-72
2021/01/28 02:15:09;;;;;;;78.60;48.00;;;153.90;1638.40;;;;;;4974586;28;20037;-71
2021/01/28 02:17:38;;;;;;;77.57;48.00;;;153.80;1638.40;;;;;;4974551;28;20113;-70
2021/01/28 02:20:19;;;;;;;73.07;46.45;;;153.60;1664.00;;;;;;4974694;28;20158;-71
2021/01/28 02:22:44;;;;;;;63.72;42.03;;;153.80;1638.40;;;;;;4974379;28;20034;-71
2021/01/28 02:25:26;;;;;;;52.72;33.55;;;153.80;1638.40;;;;;;4974604;28;20042;-71
2021/01/28 02:27:56;;;;;;;95.82;57.53;;;153.60;1664.00;;;;;;4974481;28;20049;-70
2021/01/28 02:30:25;;;;;;;70.15;42.10;;;128.80;1689.60;;;;;;4974562;28;20034;-71
2021/01/28 02:32:52;;;;;;;66.50;44.80;;;128.90;1689.60;;;;;;4974885;28;20062;-71
2021/01/28 02:35:22;;;;;;;83.65;56.55;;;153.60;1664.00;;;;;;4974316;28;20027;-71
2021/01/28 02:37:49;;;;;;;77.82;50.95;;;153.80;1638.40;;;;;;4974352;28;20105;-71
2021/01/28 02:40:18;;;;;;;72.03;46.90;;;154.00;1638.40;;;;;;4974358;28;20054;-71
2021/01/28 02:42:44;;;;;;;66.57;39.83;;;154.00;1612.80;;;;;;4974372;28;20038;-71
2021/01/28 02:45:26;;;;;;;74.43;42.35;;;154.10;1612.80;;;;;;4974178;28;20039;-71
2021/01/28 02:47:58;;;;;;;127.93;75.60;;;154.10;1612.80;;;;;;4974122;28;20430;-71
2021/01/28 02:50:25;;;;;;;101.30;58.75;;;154.20;1587.20;;;;;;4974313;28;20029;-71
2021/01/28 02:52:59;;;;;;;110.10;66.15;;;154.30;1587.20;;;;;;4974307;28;20078;-71
2021/01/28 02:55:28;;;;;;;110.35;63.92;;;154.20;1587.20;;;;;;4974205;28;20140;-71
2021/01/28 02:57:54;;;;;;;101.05;58.67;;;154.30;1587.20;;;;;;4973972;28;20118;-72
2021/01/28 03:00:30;;;;;;;115.15;64.88;;;154.50;1638.40;;;;;;4973988;28;20027;-71
2021/01/28 03:02:56;;;;;;;126.32;75.97;;;154.50;1561.60;;;;;;4974066;28;20015;-71
2021/01/28 03:05:21;;;;;;;130.27;77.80;;;154.40;1587.20;;;;;;4974121;28;20081;-71
2021/01/28 03:07:48;;;;;;;142.10;86.47;;;154.30;1587.20;;;;;;4974142;28;20473;-71
2021/01/28 03:10:15;;;;;;;78.72;47.58;;;154.40;1612.80;;;;;;4974098;28;20119;-71
2021/01/28 03:12:41;;;;;;;73.10;43.67;;;154.00;1612.80;;;;;;4974126;28;20034;-71
2021/01/28 03:15:09;;;;;;;58.40;34.53;;;128.80;1664.00;;;;;;4974568;28;20019;-71
2021/01/28 03:17:35;;;;;;;54.45;32.42;;;128.30;1740.80;;;;;;4977525;28;20033;-70
2021/01/28 03:20:00;;;;;;;104.25;64.40;;;128.60;1715.20;;;;;;4977678;28;20106;-71
2021/01/28 03:22:26;;;;;;;100.97;61.25;;;128.80;1689.60;;;;;;4977914;28;20027;-70
2021/01/28 03:24:52;;;;;;;98.60;58.95;;;153.70;1638.40;;;;;;4977600;28;20093;-70
2021/01/28 03:27:18;;;;;;;95.43;52.70;;;153.90;1612.80;;;;;;4977752;28;20374;-70
2021/01/28 03:29:43;;;;;;;80.40;45.80;;;128.90;1638.40;;;;;;4977563;28;20027;-70
2021/01/28 03:32:09;;;;;;;73.03;41.58;;;128.50;2227.20;;;;;;4977382;28;20031;-71
2021/01/28 03:34:35;;;;;;;72.00;42.90;;;128.40;1740.80;;;;;;4960160;28;20441;-71
2021/01/28 03:37:01;;;;;;;61.33;36.38;;;;;;;;;;4977519;28;20026;-71
2021/01/28 03:39:27;;;;;;;59.08;36.60;;;;;;;;;;4977277;28;20031;-72
2021/01/28 03:41:53;;;;;;;76.72;45.17;;;102.90;1792.00;;;;;;4977299;28;20466;-71
2021/01/28 03:44:19;;;;;;;120.93;64.03;;;103.10;1766.40;;;;;;4977361;28;20127;-71
2021/01/28 03:46:44;;;;;;;119.75;65.78;;;128.10;1740.80;;;;;;4977161;28;20465;-71
2021/01/28 03:49:10;;;;;;;137.93;71.65;;;;;;;;;;4977271;28;20049;-71
2021/01/28 03:51:36;;;;;;;91.93;49.13;;;128.80;1689.60;;;;;;4977499;28;20026;-71
2021/01/28 03:54:02;;;;;;;58.78;34.42;;;153.60;1664.00;;;;;;4977096;28;20034;-71
2021/01/28 03:56:27;;;;;;;70.32;39.42;;;128.60;1664.00;;;;;;4976821;28;20093;-71
2021/01/28 03:58:53;;;;;;;71.38;47.13;;;153.60;1638.40;;;;;;4976993;28;20042;-71
2021/01/28 04:01:19;;;;;;;60.58;43.60;;;153.70;1638.40;;;;;;4976768;28;20390;-71
2021/01/28 04:03:45;;;;;;;47.63;34.50;;;153.80;1612.80;;;;;;4977012;28;20481;-71
2021/01/28 04:06:11;;;;;;;55.60;36.80;;;153.90;1612.80;;;;;;4976986;28;20019;-71
2021/01/28 04:08:37;;;;;;;49.63;33.53;;;153.90;1612.80;;;;;;4976924;28;20026;-71
2021/01/28 04:11:02;;;;;;;55.13;34.53;;;153.80;1638.40;;;;;;4976944;28;20034;-71
2021/01/28 04:13:28;;;;;;;61.85;37.13;;;153.70;1664.00;;;;;;4976754;28;20027;-71
2021/01/28 04:15:54;;;;;;;55.10;34.28;;;153.60;1664.00;;;;;;4976674;28;20058;-71
2021/01/28 04:18:20;;;;;;;127.20;80.07;;;153.60;1664.00;;;;;;4976404;28;20473;-71
2021/01/28 04:20:46;;;;;;;173.85;127.82;;;153.70;1638.40;;;;;;4976694;28;20486;-71
2021/01/28 04:23:13;;;;;;;147.43;133.02;;;153.80;1612.80;;;;;;4976452;28;20037;-71
2021/01/28 04:25:38;;;;;;;69.95;47.65;;;153.80;1612.80;;;;;;4976536;28;20026;-71
2021/01/28 04:28:04;;;;;;;75.88;47.88;;;153.90;1587.20;;;;;;4976294;28;20478;-71
2021/01/28 04:30:33;;;;;;;73.18;45.50;;;153.60;1612.80;;;;;;4959091;28;20519;-71
2021/01/28 04:33:04;;;;;;;77.78;46.30;;;153.60;1638.40;;;;;;4976556;28;20019;-71
2021/01/28 04:35:30;;;;;;;76.90;49.67;;;128.80;1664.00;;;;;;4974992;28;20113;-71
2021/01/28 04:37:56;;;;;;;73.80;45.45;;;128.90;1664.00;;;;;;4976150;28;20118;-71
2021/01/28 04:40:44;;;;;;;57.17;36.53;;;128.20;1689.60;;;;;;4976276;28;20034;-71
2021/01/28 04:43:20;;;;;;;56.80;38.90;;;128.40;1689.60;;;;;;4976003;28;20070;-71
2021/01/28 04:45:47;;;;;;;57.35;38.03;;;128.80;1664.00;;;;;;4976002;28;20137;-71
2021/01/28 04:48:13;;;;;;;46.97;34.00;;;128.80;1638.40;;;;;;4976027;28;20074;-70
2021/01/28 04:50:42;;;;;;;39.80;27.95;;;128.50;1664.00;;;;;;4976158;28;20034;-70
2021/01/28 04:53:19;;;;;;;47.95;32.05;;;128.20;1689.60;;;;;;4975977;28;20077;-71
2021/01/28 04:55:51;;;;;;;50.45;32.97;;;128.20;1715.20;;;;;;4975652;28;20023;-71
2021/01/28 04:58:18;;;;;;;49.28;32.17;;;128.00;1715.20;;;;;;4975650;28;20543;-71
2021/01/28 05:00:44;;;;;;;52.33;32.53;;;128.20;1715.20;;;;;;4975748;28;20077;-71
2021/01/28 05:03:22;;;;;;;52.85;32.97;;;128.10;1740.80;;;;;;4975510;28;20118;-70
2021/01/28 05:05:51;;;;;;;51.33;33.63;;;128.00;1715.20;;;;;;4975772;28;20027;-71
2021/01/28 05:08:17;;;;;;;55.88;38.72;;;128.00;1715.20;;;;;;4975486;28;20027;-71
2021/01/28 05:10:49;;;;;;;64.32;40.53;;;128.30;1715.20;;;;;;4975543;28;20038;-71
2021/01/28 05:13:36;;;;;;;64.80;40.72;;;128.50;1689.60;;;;;;4975609;28;20023;-71
2021/01/28 05:16:26;;;;;;;65.65;42.80;;;128.80;1664.00;;;;;;4975339;28;20097;-71
2021/01/28 05:19:00;;;;;;;70.20;42.67;;;153.60;2099.20;;;;;;4975500;28;20485;-71
2021/01/28 05:21:38;;;;;;;72.18;42.45;;;153.60;1638.40;;;;;;4975488;28;20106;-71
2021/01/28 05:24:09;;;;;;;77.60;48.05;;;153.70;1638.40;;;;;;4975267;28;20038;-71
2021/01/28 05:26:41;;;;;;;81.27;50.20;;;153.70;1638.40;;;;;;4975286;28;20026;-71
2021/01/28 05:29:28;;;;;;;78.70;49.60;;;153.70;1664.00;;;;;;4975255;28;20342;-71
2021/01/28 05:31:55;;;;;;;77.40;46.10;;;;;;;;;;4975277;28;20065;-71
2021/01/28 05:34:23;;;;;;;73.40;47.45;;;;;;;;;;4975443;28;20389;-71
2021/01/28 05:36:54;;;;;;;76.43;47.92;;;;;;;;;;4975244;28;20608;-71
2021/01/28 05:39:23;;;;;;;89.53;55.05;;;153.60;1612.80;;;;;;4974458;28;20504;-70
2021/01/28 05:41:50;;;;;;;95.47;57.05;;;128.40;1638.40;;;;;;4975119;28;20037;-71
2021/01/28 05:44:30;;;;;;;94.38;57.53;;;128.20;1689.60;;;;;;4974888;28;20026;-71
2021/01/28 05:47:24;;;;;;;92.22;58.67;;;128.70;1664.00;;;;;;4974920;28;20027;-71
2021/01/28 05:49:51;;;;;;;91.53;56.22;;;128.00;1715.20;;;;;;4974669;28;20054;-71
2021/01/28 05:52:26;;;;;;;101.45;60.83;;;128.60;1664.00;;;;;;4974891;28;20118;-70
2021/01/28 05:55:22;;;;;;;105.38;69.15;;;128.80;1612.80;;;;;;4974658;28;20421;-71
2021/01/28 05:58:06;;;;;;;116.28;79.55;;;128.90;1638.40;;;;;;4934210;29;20052;-71
2021/01/28 06:00:50;;;;;;;110.78;74.35;;;128.80;1638.40;;;;;;4934249;29;20030;-71
2021/01/28 06:03:58;;;;;;;125.80;81.22;;;128.90;1612.80;;;;;;4933965;29;20059;-71
2021/01/28 06:06:42;;;;;;;140.85;89.03;;;128.90;1612.80;;;;;;4934358;29;20031;-71
2021/01/28 06:09:32;;;;;;;124.47;77.35;;;128.90;1612.80;;;;;;4934251;29;20035;-71
2021/01/28 06:11:58;;;;;;;104.57;65.43;;;128.80;1612.80;;;;;;4934503;29;20024;-71
2021/01/28 06:15:11;;;;;;;91.10;57.25;;;128.90;1587.20;;;;;;4934134;29;20115;-71
2021/01/28 06:18:04;;;;;;;89.22;56.90;;;128.90;1587.20;;;;;;4915824;29;20028;-70
2021/01/28 06:21:01;;;;;;;96.90;64.57;;;128.90;1587.20;;;;;;4914249;29;20051;-69
2021/01/28 06:23:42;;;;;;;97.50;56.90;;;128.80;1587.20;;;;;;4857932;29;20141;-70
2021/01/28 06:26:28;;;;;;;113.80;69.85;;;128.60;2252.80;;;;;;4860825;29;20036;-69
2021/01/28 06:29:23;;;;;;;111.18;71.60;;;;;;;;;;4883974;29;20124;-70
2021/01/28 06:32:10;;;;;;;121.65;77.40;;;128.10;1638.40;;;;;;4885915;29;20025;-70
2021/01/28 06:34:51;;;;;;;117.88;78.75;;;128.10;1638.40;;;;;;4905530;29;20499;-69
2021/01/28 06:37:26;;;;;;;138.27;93.90;;;102.90;1689.60;;;;;;4913834;29;20431;-69
2021/01/28 06:39:54;;;;;;;155.63;100.22;;;102.60;1740.80;;;;;;4913906;29;20107;-70
2021/01/28 06:42:39;;;;;;;147.98;101.68;;;102.60;1740.80;;;;;;4914084;29;20040;-70
2021/01/28 06:45:23;;;;;;;148.25;98.75;;;102.80;1689.60;;;;;;4913956;29;20578;-69
2021/01/28 06:48:23;;;;;;;152.68;98.65;;;102.90;1689.60;;;;;;4902416;29;20591;-69
2021/01/28 06:51:17;;;;;;;166.52;110.13;;;102.80;1715.20;;;;;;4896849;29;20044;-69
2021/01/28 06:53:50;;;;;;;168.05;106.90;;;103.20;1664.00;;;;;;4879872;29;20041;-70
2021/01/28 06:56:35;;;;;;;165.57;102.53;;;;;;;;;;4879836;29;20056;-70
2021/01/28 06:59:24;;;;;;;160.30;102.10;;;103.00;1664.00;;;;;;4880038;29;20056;-70
2021/01/28 07:02:29;;;;;;;166.82;106.57;;;128.10;1664.00;;;;;;4917525;29;20508;-71
2021/01/28 07:05:28;;;;;;;171.63;104.80;;;128.40;1689.60;;;;;;4916824;29;20570;-70
2021/01/28 07:08:03;;;;;;;228.93;138.75;;;128.70;1638.40;;;;;;4884729;29;20029;-70
2021/01/28 07:10:38;;;;;;;243.07;151.73;;;128.70;1638.40;;;;;;4880315;29;20068;-69
2021/01/28 07:13:09;;;;;;;309.77;201.90;;;128.90;1612.80;;;;;;4880197;29;20115;-70
2021/01/28 07:15:35;;;;;;;290.98;185.65;;;128.90;1587.20;;;;;;4879851;29;20029;-70
2021/01/28 07:18:11;;;;;;;213.73;140.25;;;153.60;1561.60;;;;;;4894811;29;20033;-70
2021/01/28 07:20:55;;;;;;;175.77;118.32;;;128.90;1561.60;;;;;;4898513;29;20048;-70
2021/01/28 07:23:38;;;;;;;183.93;117.88;;;128.70;1587.20;;;;;;4898148;29;20411;-71
2021/01/28 07:26:19;;;;;;;178.25;117.35;;;128.80;1587.20;;;;;;4891397;29;20040;-72
2021/01/28 07:28:47;;;;;;;169.93;117.72;;;153.60;1561.60;;;;;;4880415;29;20085;-73
2021/01/28 07:31:40;;;;;;;178.63;121.25;;;153.60;1587.20;;;;;;4959463;28;20516;-71
2021/01/28 07:34:10;;;;;;;166.65;110.78;;;153.90;1587.20;;;;;;4977552;28;20445;-73
2021/01/28 07:36:43;;;;;;;157.18;105.43;;;154.10;1536.00;;;;;;4977379;28;20027;-71
2021/01/28 07:39:28;;;;;;;178.20;113.72;;;;;;;;;;4977379;28;20026;-72
2021/01/28 07:41:57;;;;;;;147.48;98.45;;;154.20;1510.40;;;;;;4977092;28;20030;-73
2021/01/28 07:44:35;;;;;;;160.45;103.05;;;154.30;1484.80;;;;;;4977001;28;20031;-73
2021/01/28 07:47:03;;;;;;;158.52;102.72;;;154.50;1484.80;;;;;;4976996;28;20385;-73
2021/01/28 07:49:35;;;;;;;150.00;101.35;;;179.20;1484.80;;;;;;4977004;28;20027;-74
2021/01/28 07:52:13;;;;;;;133.95;90.65;;;179.30;1459.20;;;;;;4977379;28;20022;-73
2021/01/28 07:54:51;;;;;;;125.25;86.70;;;179.50;1433.60;;;;;;4976862;28;20023;-72
2021/01/28 07:57:29;;;;;;;127.70;81.78;;;179.60;1433.60;;;;;;4976826;28;20050;-73
2021/01/28 08:00:08;;;;;;;126.38;91.78;;;179.80;1408.00;;;;;;4976903;28;20034;-71
2021/01/28 08:02:36;;;;;;;107.43;67.63;;;179.90;1356.80;;;;;;4976169;28;20034;-72
2021/01/28 08:05:04;;;;;;;111.13;67.10;;;179.70;1356.80;;;;;;4976538;28;20117;-71
2021/01/28 08:07:38;;;;;;;122.65;79.57;;;179.80;1356.80;;;;;;4976309;28;20027;-72
2021/01/28 08:10:19;;;;;;;108.22;72.53;;;180.00;1331.20;;;;;;4975524;28;20094;-76
2021/01/28 08:12:51;;;;;;;91.85;59.03;;;204.90;1331.20;;;;;;4976484;28;20548;-77
2021/01/28 08:15:20;;;;;;;63.28;40.47;;;205.10;1254.40;;;;;;4976632;28;20034;-77
2021/01/28 08:17:59;;;;;;;75.13;46.80;;;205.20;1228.80;;;;;;4976378;28;20026;-76
2021/01/28 08:20:30;;;;;;;76.53;49.03;;;205.40;1228.80;;;;;;4976592;28;20445;-76
2021/01/28 08:23:05;;;;;;;75.90;51.20;;;205.30;1203.20;;;;;;4976488;28;20053;-76
2021/01/28 08:25:35;;;;;;;82.97;51.80;;;205.20;1254.40;;;;;;4976238;28;20547;-75
2021/01/28 08:28:12;;;;;;;49.25;32.88;;;205.40;1228.80;;;;;;4976439;28;20035;-74
2021/01/28 08:30:38;;;;;;;43.67;26.83;;;205.50;1126.40;;;;;;4976185;28;20078;-75
2021/01/28 08:33:05;;;;;;;37.65;25.85;;;205.50;1126.40;;;;;;4976009;28;20055;-75
2021/01/28 08:35:45;;;;;;;107.80;55.15;;;205.30;1152.00;;;;;;4976250;28;20500;-75
2021/01/28 08:38:16;;;;;;;30.23;21.02;;;205.70;1126.40;;;;;;4976143;28;20057;-75
2021/01/28 08:40:44;;;;;;;22.17;14.52;;;205.60;1100.80;;;;;;4976152;28;20035;-75
2021/01/28 08:43:16;;;;;;;42.47;28.88;;;230.60;1075.20;;;;;;4976036;28;20030;-76
2021/01/28 08:45:42;;;;;;;34.80;22.63;;;231.00;1100.80;;;;;;4976007;28;20034;-76
2021/01/28 08:48:13;;;;;;;37.35;21.80;;;231.10;1049.60;;;;;;4975735;28;20022;-76
2021/01/28 08:50:40;;;;;;;40.03;28.75;;;256.10;1024.00;;;;;;4976041;28;20394;-75
2021/01/28 08:53:19;;;;;;;30.85;19.20;;;256.40;998.40;;;;;;4975918;28;20473;-76
2021/01/28 08:55:45;;;;;;;19.85;12.93;;;256.30;972.80;;;;;;4975674;28;20394;-76
2021/01/28 08:58:25;;;;;;;35.45;24.45;;;256.60;972.80;;;;;;4975798;28;20114;-73
2021/01/28 09:01:00;;;;;;;19.17;12.55;;;281.60;972.80;;;;;;4976091;28;20023;-76
2021/01/28 09:03:40;;;;;;;26.05;16.20;;;281.60;947.20;;;;;;4975627;28;20035;-74
2021/01/28 09:06:06;;;;;;;27.08;14.98;;;281.70;972.80;;;;;;4975645;28;20035;-74
2021/01/28 09:08:36;;;;;;;20.15;13.55;;;256.70;921.60;;;;;;4975518;28;20019;-75
2021/01/28 09:11:15;;;;;;;26.30;16.98;;;256.70;921.60;;;;;;4975623;28;20023;-75
2021/01/28 09:14:00;;;;;;;31.15;17.73;;;256.60;921.60;;;;;;4974880;28;20034;-76
2021/01/28 09:16:25;;;;;;;23.08;15.10;;;282.00;921.60;;;;;;4975197;28;20038;-75
2021/01/28 09:18:53;;;;;;;37.78;23.73;;;358.70;768.00;;;;;;4975348;28;20027;-75
2021/01/28 09:21:20;;;;;;;38.53;30.85;;;384.30;716.80;;;;;;4975523;28;20052;-75
2021/01/28 09:24:18;;;;;;;16.13;14.52;;;384.10;716.80;;;;;;4975171;28;20035;-75
2021/01/28 09:26:45;;;;;;;21.52;16.52;;;512.00;486.40;;;;;;4975312;28;20023;-73
2021/01/28 09:29:13;;;;;;;17.20;11.43;;;538.00;460.80;;;;;;4975200;28;20026;-73
2021/01/28 09:31:39;;;;;;;10.10;7.45;;;588.80;435.20;;;;;;4975206;28;20031;-73
2021/01/28 09:34:31;;;;;;;19.98;12.88;;;564.00;435.20;;;;;;4974910;28;20018;-74
2021/01/28 09:37:15;;;;;;;24.73;16.42;;;614.60;409.60;;;;;;4934580;29;20063;-73
2021/01/28 09:39:43;;;;;;;25.50;16.65;;;615.10;384.00;;;;;;4934442;29;20031;-74
2021/01/28 09:42:30;;;;;;;22.17;15.48;;;538.40;460.80;;;;;;4934417;29;20083;-73
2021/01/28 09:45:10;;;;;;;23.05;16.05;;;588.90;435.20;;;;;;4934286;29;20044;-72
2021/01/28 09:47:36;;;;;;;18.38;14.35;;;589.60;384.00;;;;;;4934311;29;20055;-73
2021/01/28 09:50:10;;;;;;;16.33;13.48;;;589.70;409.60;;;;;;4934378;29;20075;-72
2021/01/28 09:52:44;;;;;;;53.55;31.08;;;615.00;358.40;;;;;;4934492;29;20038;-73
2021/01/28 09:55:19;;;;;;;30.15;17.83;;;665.70;332.80;;;;;;4934275;29;20402;-73
2021/01/28 09:57:45;;;;;;;18.73;12.20;;;666.10;332.80;;;;;;4934066;29;20588;-73
2021/01/28 10:00:14;;;;;;;35.53;19.02;;;589.50;409.60;;;;;;4934243;28;20123;-74
2021/01/28 10:02:49;;;;;;;32.97;21.02;;;588.90;435.20;;;;;;4933995;29;20483;-74
2021/01/28 10:05:21;;;;;;;23.60;16.77;;;614.50;384.00;;;;;;4934041;29;20043;-74
2021/01/28 10:07:47;;;;;;;12.02;9.05;;;640.10;332.80;;;;;;4934035;29;20486;-73
2021/01/28 10:10:15;;;;;;;22.13;13.57;;;614.90;358.40;;;;;;4934232;29;20035;-74
2021/01/28 10:12:41;;;;;;;23.02;11.02;;;615.10;332.80;;;;;;4934168;28;20486;-74
2021/01/28 10:15:08;;;;;;;30.33;17.63;;;640.90;281.60;;;;;;4974382;28;20500;-73
2021/01/28 10:17:34;;;;;;;20.90;11.15;;;666.10;307.20;;;;;;4974372;28;20422;-73
2021/01/28 10:20:00;;;;;;;20.65;13.45;;;665.90;307.20;;;;;;4957355;28;20072;-74
2021/01/28 10:22:26;;;;;;;21.42;9.63;;;665.80;332.80;;;;;;4974592;28;20382;-73
2021/01/28 10:24:52;;;;;;;21.17;11.85;;;614.70;358.40;;;;;;4974059;28;20074;-73
2021/01/28 10:27:18;;;;;;;29.38;19.90;;;614.70;358.40;;;;;;4974498;28;20062;-75
2021/01/28 10:29:44;;;;;;;15.70;12.07;;;564.00;435.20;;;;;;4974377;28;20057;-75
2021/01/28 10:32:18;;;;;;;19.00;13.27;;;563.50;435.20;;;;;;4974338;28;20149;-76
2021/01/28 10:34:43;;;;;;;23.77;10.52;;;538.00;435.20;;;;;;4974641;28;20022;-76
2021/01/28 10:37:10;;;;;;;14.88;10.43;;;487.20;460.80;;;;;;4974322;28;20045;-75
2021/01/28 10:39:36;;;;;;;21.38;11.85;;;486.70;460.80;;;;;;4974240;28;20027;-76
2021/01/28 10:42:02;;;;;;;38.13;16.88;;;461.60;512.00;;;;;;4974220;28;20027;-75
2021/01/28 10:44:28;;;;;;;30.02;19.77;;;461.70;512.00;;;;;;4974186;28;20031;-75
2021/01/28 10:46:55;;;;;;;40.75;16.60;;;487.10;486.40;;;;;;4956825;28;20121;-75
2021/01/28 10:49:21;;;;;;;35.72;19.55;;;461.30;512.00;;;;;;4974112;28;20037;-75
2021/01/28 10:51:50;;;;;;;39.67;26.15;;;487.00;486.40;;;;;;4974213;28;20106;-75
2021/01/28 10:54:16;;;;;;;27.33;13.85;;;487.20;460.80;;;;;;4973975;28;20380;-75
2021/01/28 10:56:43;;;;;;;30.38;26.25;;;486.70;486.40;;;;;;4973751;28;20046;-74
2021/01/28 10:59:08;;;;;;;23.00;13.88;;;436.00;537.60;;;;;;4973868;28;20031;-76
2021/01/28 11:01:35;;;;;;;28.17;17.33;;;436.10;537.60;;;;;;4973807;28;20031;-74
2021/01/28 11:04:00;;;;;;;45.90;19.35;;;435.70;563.20;;;;;;4973721;28;20078;-75
2021/01/28 11:06:26;;;;;;;19.58;13.20;;;435.30;563.20;;;;;;4973978;28;20027;-74
2021/01/28 11:08:52;;;;;;;25.67;18.55;;;435.80;563.20;;;;;;4974065;28;20113;-72
2021/01/28 11:11:18;;;;;;;28.35;16.10;;;435.30;563.20;;;;;;4973552;28;20019;-72
2021/01/28 11:13:44;;;;;;;27.48;12.93;;;436.00;537.60;;;;;;4973979;28;20027;-72
2021/01/28 11:16:11;;;;;;;13.27;9.30;;;461.20;537.60;;;;;;4973728;28;20038;-73
2021/01/28 11:18:37;;;;;;;27.83;15.57;;;460.90;537.60;;;;;;4973740;28;20023;-75
2021/01/28 11:21:03;;;;;;;18.85;12.75;;;435.70;563.20;;;;;;4973872;28;20103;-73
2021/01/28 11:23:29;;;;;;;30.98;18.80;;;435.90;537.60;;;;;;4974053;28;20081;-71
2021/01/28 11:25:55;;;;;;;35.35;18.23;;;435.90;537.60;;;;;;4973854;28;20031;-72
2021/01/28 11:28:21;;;;;;;27.17;13.13;;;435.90;537.60;;;;;;4973589;28;20132;-72
2021/01/28 11:30:47;;;;;;;17.35;9.20;;;435.40;537.60;;;;;;4973679;28;20035;-72
2021/01/28 11:33:13;;;;;;;48.53;15.27;;;410.50;563.20;;;;;;4973426;28;20019;-72
2021/01/28 11:35:39;;;;;;;25.17;11.98;;;410.30;588.80;;;;;;4954456;28;20154;-74
2021/01/28 11:38:07;;;;;;;18.98;11.88;;;410.50;563.20;;;;;;4957759;29;20031;-74
2021/01/28 11:40:35;;;;;;;25.85;13.88;;;410.40;563.20;;;;;;4957966;29;20027;-73
2021/01/28 11:43:03;;;;;;;23.75;13.73;;;409.70;588.80;;;;;;4958023;29;20434;-74
2021/01/28 11:45:32;;;;;;;9.63;5.22;;;409.60;588.80;;;;;;4940435;29;20501;-74
2021/01/28 11:47:58;;;;;;;13.60;7.43;;;384.60;563.20;;;;;;4957604;29;20081;-76
2021/01/28 11:50:23;;;;;;;17.58;11.00;;;409.60;588.80;;;;;;4957758;29;20027;-75
2021/01/28 11:52:49;;;;;;;40.33;21.67;;;384.80;563.20;;;;;;4957905;29;20038;-73
2021/01/28 11:55:19;;;;;;;21.85;8.52;;;384.40;588.80;;;;;;4972316;28;20038;-70
2021/01/28 11:57:45;;;;;;;20.50;8.45;;;359.10;640.00;;;;;;4976262;28;20569;-76
2021/01/28 12:00:13;;;;;;;17.13;5.88;;;384.30;614.40;;;;;;4976404;28;20378;-72
2021/01/28 12:02:39;;;;;;;10.48;6.45;;;384.00;588.80;;;;;;4976183;28;20023;-73
2021/01/28 12:05:07;;;;;;;18.27;10.10;;;384.10;563.20;;;;;;4976717;28;20042;-73
2021/01/28 12:07:34;;;;;;;31.65;15.50;;;359.30;614.40;;;;;;4976056;28;20031;-72
2021/01/28 12:10:00;;;;;;;33.53;13.90;;;359.00;640.00;;;;;;4976524;28;20038;-72
2021/01/28 12:12:25;;;;;;;26.10;15.90;;;359.10;640.00;;;;;;4976516;28;20031;-72
2021/01/28 12:14:51;;;;;;;27.88;13.95;;;384.00;614.40;;;;;;4976389;28;20033;-73
2021/01/28 12:17:17;;;;;;;38.70;23.67;;;384.20;614.40;;;;;;4976738;28;20045;-72
2021/01/28 12:19:42;;;;;;;23.77;12.38;;;384.30;563.20;;;;;;4976323;28;20031;-72
2021/01/28 12:22:08;;;;;;;25.88;13.75;;;359.10;614.40;;;;;;4976517;28;20386;-72
2021/01/28 12:24:34;;;;;;;31.42;26.25;;;358.90;588.80;;;;;;4968960;28;20083;-73